createdAt,value
2019-03-22T00:02:07.358Z,35.20
2019-03-22T00:04:37.925Z,38.00
2019-03-22T00:07:08.128Z,37.73
2019-03-22T00:09:38.636Z,38.67
2019-03-22T00:12:09.900Z,39.83
2019-03-22T00:14:40.155Z,38.07
2019-03-22T00:17:10.809Z,36.37
2019-03-22T00:19:41.106Z,36.63
2019-03-22T00:22:11.597Z,35.93
2019-03-22T00:24:41.813Z,33.63
2019-03-22T00:27:16.785Z,34.53
2019-03-22T00:29:44.172Z,31.90
2019-03-22T00:32:14.580Z,29.43
2019-03-22T00:34:44.855Z,27.20
2019-03-22T00:37:15.046Z,26.63
2019-03-22T00:39:45.482Z,26.20
2019-03-22T00:42:15.980Z,24.00
2019-03-22T00:44:46.189Z,22.07
2019-03-22T00:47:16.407Z,23.33
2019-03-22T00:49:46.624Z,19.53
2019-03-22T00:52:16.864Z,19.60
2019-03-22T00:54:47.115Z,18.27
2019-03-22T00:57:27.709Z,18.43
2019-03-22T00:59:49.485Z,17.53
2019-03-22T01:02:20.069Z,17.07
2019-03-22T01:04:50.512Z,15.27
2019-03-22T01:07:20.784Z,15.50
2019-03-22T01:09:51.135Z,16.80
2019-03-22T01:12:22.080Z,15.87
2019-03-22T01:14:52.321Z,15.27
2019-03-22T01:17:22.516Z,16.10
2019-03-22T01:19:53.283Z,15.77
2019-03-22T01:22:23.810Z,17.97
2019-03-22T01:24:54.032Z,18.43
2019-03-22T01:27:24.464Z,20.20
2019-03-22T01:29:54.681Z,21.47
2019-03-22T01:32:25.183Z,21.40
2019-03-22T01:34:55.391Z,21.07
2019-03-22T01:37:26.000Z,20.93
2019-03-22T01:39:56.520Z,21.97
2019-03-22T01:42:26.718Z,23.10
2019-03-22T01:44:57.271Z,21.97
2019-03-22T01:47:27.566Z,23.13
2019-03-22T01:49:58.123Z,24.83
2019-03-22T01:52:28.309Z,23.23
2019-03-22T01:54:58.512Z,25.97
2019-03-22T01:57:28.712Z,26.67
2019-03-22T01:59:58.922Z,26.07
2019-03-22T02:02:29.116Z,27.70
2019-03-22T02:04:59.729Z,27.00
2019-03-22T02:07:30.889Z,26.83
2019-03-22T02:10:01.176Z,26.37
2019-03-22T02:12:31.377Z,25.93
2019-03-22T02:15:01.565Z,26.87
2019-03-22T02:17:31.776Z,26.80
2019-03-22T02:20:02.156Z,27.83
2019-03-22T02:22:32.367Z,27.27
2019-03-22T02:25:02.946Z,29.20
2019-03-22T02:27:33.372Z,28.53
2019-03-22T02:30:03.908Z,28.67
2019-03-22T02:32:34.109Z,27.90
2019-03-22T02:35:04.520Z,28.47
2019-03-22T02:37:35.004Z,29.87
2019-03-22T02:40:06.181Z,31.20
2019-03-22T02:42:36.416Z,30.47
2019-03-22T02:45:07.913Z,28.57
2019-03-22T02:47:38.437Z,30.67
2019-03-22T02:50:17.996Z,29.80
2019-03-22T02:52:41.657Z,28.57
2019-03-22T02:55:12.291Z,27.37
2019-03-22T02:57:42.644Z,32.33
2019-03-22T03:00:13.947Z,31.53
2019-03-22T03:02:44.565Z,30.37
2019-03-22T03:05:16.345Z,30.43
2019-03-22T03:07:47.066Z,31.20
2019-03-22T03:10:17.428Z,29.77
2019-03-22T03:12:47.789Z,32.17
2019-03-22T03:15:18.651Z,31.10
2019-03-22T03:17:49.131Z,29.50
2019-03-22T03:20:19.799Z,29.47
2019-03-22T03:22:50.361Z,29.67
2019-03-22T03:25:20.769Z,29.17
2019-03-22T03:27:50.980Z,32.13
2019-03-22T03:30:21.457Z,30.70
2019-03-22T03:32:51.818Z,30.77
2019-03-22T03:35:22.198Z,30.87
2019-03-22T03:37:52.838Z,31.47
2019-03-22T03:40:23.133Z,31.47
2019-03-22T03:42:53.644Z,33.30
2019-03-22T03:45:32.660Z,32.03
2019-03-22T03:48:03.261Z,31.20
2019-03-22T03:50:33.644Z,31.13
2019-03-22T03:53:04.549Z,32.07
2019-03-22T03:55:35.153Z,33.73
2019-03-22T03:58:06.643Z,33.50
2019-03-22T04:00:37.313Z,33.20
2019-03-22T04:03:07.604Z,34.23
2019-03-22T04:05:37.807Z,32.07
2019-03-22T04:08:08.031Z,33.13
2019-03-22T04:10:38.312Z,33.30
2019-03-22T04:13:08.557Z,31.53
2019-03-22T04:15:39.085Z,32.40
2019-03-22T04:18:09.359Z,35.03
2019-03-22T04:20:39.608Z,32.33
2019-03-22T04:23:09.933Z,34.30
2019-03-22T04:25:40.295Z,33.27
2019-03-22T04:28:10.491Z,34.23
2019-03-22T04:30:40.870Z,33.37
2019-03-22T04:33:11.070Z,32.83
2019-03-22T04:35:41.602Z,32.50
2019-03-22T04:38:11.806Z,33.60
2019-03-22T04:40:42.971Z,33.03
2019-03-22T04:43:13.247Z,32.53
2019-03-22T04:45:44.610Z,32.50
2019-03-22T04:48:21.072Z,33.10
2019-03-22T04:50:54.396Z,31.20
2019-03-22T04:53:27.951Z,32.10
2019-03-22T04:56:01.956Z,31.73
2019-03-22T04:58:33.647Z,38.63
2019-03-22T05:01:04.607Z,34.47
2019-03-22T05:03:36.868Z,34.70
2019-03-22T05:06:09.727Z,34.50
2019-03-22T05:08:41.724Z,33.43
2019-03-22T05:11:14.977Z,35.03
2019-03-22T05:13:47.532Z,33.90
2019-03-22T05:16:19.753Z,32.80
2019-03-22T05:18:51.212Z,33.13
2019-03-22T05:21:24.259Z,33.53
2019-03-22T05:23:57.706Z,33.60
2019-03-22T05:26:30.701Z,34.47
2019-03-22T05:29:02.259Z,33.63
2019-03-22T05:31:57.083Z,34.53
2019-03-22T05:34:27.911Z,34.33
2019-03-22T05:36:58.374Z,35.67
2019-03-22T05:39:28.631Z,32.97
2019-03-22T05:41:58.845Z,32.53
2019-03-22T05:44:29.060Z,41.67
2019-03-22T05:46:59.508Z,33.23
2019-03-22T05:49:29.712Z,32.17
2019-03-22T05:51:59.928Z,30.47
2019-03-22T05:54:30.127Z,28.93
2019-03-22T05:57:00.932Z,35.87
2019-03-22T05:59:41.983Z,29.67
2019-03-22T06:02:04.151Z,29.60
2019-03-22T06:04:34.352Z,30.27
2019-03-22T06:07:04.688Z,32.70
2019-03-22T06:09:35.272Z,31.73
2019-03-22T06:12:05.705Z,30.23
2019-03-22T06:14:36.228Z,29.00
2019-03-22T06:17:06.908Z,29.17
2019-03-22T06:19:37.369Z,28.67
2019-03-22T06:22:07.571Z,29.10
2019-03-22T06:24:37.921Z,28.17
2019-03-22T06:27:08.211Z,26.27
2019-03-22T06:29:39.059Z,27.40
2019-03-22T06:32:10.244Z,25.07
2019-03-22T06:34:40.449Z,27.47
2019-03-22T06:37:10.747Z,28.10
2019-03-22T06:39:41.382Z,27.70
2019-03-22T06:42:11.659Z,28.47
2019-03-22T06:44:41.903Z,27.33
2019-03-22T06:47:12.445Z,28.17
2019-03-22T06:49:42.776Z,27.97
2019-03-22T06:52:13.008Z,26.90
2019-03-22T06:54:43.597Z,26.53
2019-03-22T06:57:14.067Z,26.70
2019-03-22T06:59:44.415Z,29.43
2019-03-22T07:02:14.620Z,29.23
2019-03-22T07:04:45.186Z,28.73
2019-03-22T07:07:15.384Z,30.50
2019-03-22T07:09:45.936Z,30.27
2019-03-22T07:12:16.241Z,31.47
2019-03-22T07:14:46.458Z,30.43
2019-03-22T07:17:16.768Z,34.00
2019-03-22T07:19:47.097Z,36.37
2019-03-22T07:22:17.317Z,34.57
2019-03-22T07:24:48.564Z,34.13
2019-03-22T07:27:18.872Z,34.80
2019-03-22T07:29:49.163Z,34.30
2019-03-22T07:32:19.936Z,34.77
2019-03-22T07:34:50.232Z,36.07
2019-03-22T07:37:20.496Z,36.23
2019-03-22T07:39:50.960Z,41.47
2019-03-22T07:42:21.452Z,40.47
2019-03-22T07:44:51.800Z,41.60
2019-03-22T07:47:22.512Z,41.73
2019-03-22T07:49:53.154Z,39.53
2019-03-22T07:52:23.463Z,43.43
2019-03-22T07:54:53.807Z,46.20
2019-03-22T07:57:24.071Z,46.17
2019-03-22T07:59:54.437Z,46.37
2019-03-22T08:02:25.766Z,56.17
2019-03-22T08:04:56.090Z,53.40
2019-03-22T08:07:28.435Z,48.53
2019-03-22T08:09:59.267Z,47.93
2019-03-22T08:12:30.378Z,45.63
2019-03-22T08:15:00.589Z,45.30
2019-03-22T08:17:30.849Z,43.30
2019-03-22T08:20:01.194Z,41.97
2019-03-22T08:22:31.728Z,43.90
2019-03-22T08:25:02.124Z,41.43
2019-03-22T08:27:32.428Z,38.90
2019-03-22T08:30:02.744Z,41.47
2019-03-22T08:32:33.398Z,40.97
2019-03-22T08:35:03.753Z,43.10
2019-03-22T08:37:34.056Z,41.43
2019-03-22T08:40:04.836Z,37.93
2019-03-22T08:42:35.542Z,36.93
2019-03-22T08:45:06.171Z,32.60
2019-03-22T08:47:36.419Z,30.73
2019-03-22T08:50:07.289Z,29.30
2019-03-22T08:52:38.156Z,29.13
2019-03-22T08:55:08.545Z,28.80
2019-03-22T08:57:38.899Z,42.60
2019-03-22T09:00:10.742Z,40.10
2019-03-22T09:02:42.009Z,30.77
2019-03-22T09:05:12.566Z,28.03
2019-03-22T09:07:43.223Z,27.80
2019-03-22T09:10:14.157Z,27.50
2019-03-22T09:12:45.476Z,31.00
2019-03-22T09:15:16.431Z,30.13
2019-03-22T09:17:46.700Z,31.40
2019-03-22T09:20:16.925Z,30.10
2019-03-22T09:22:47.462Z,29.77
2019-03-22T09:25:17.900Z,31.63
2019-03-22T09:27:48.201Z,29.87
2019-03-22T09:30:18.662Z,28.93
2019-03-22T09:32:49.873Z,29.53
2019-03-22T09:35:20.184Z,29.53
2019-03-22T09:37:50.547Z,31.00
2019-03-22T09:40:20.756Z,28.30
2019-03-22T09:42:53.015Z,28.83
2019-03-22T09:45:23.039Z,28.73
2019-03-22T09:47:53.240Z,28.00
2019-03-22T09:50:23.532Z,26.47
2019-03-22T09:52:53.739Z,26.93
2019-03-22T09:55:24.053Z,26.70
2019-03-22T09:57:54.400Z,27.63
2019-03-22T10:00:32.847Z,27.93
2019-03-22T10:03:03.723Z,26.43
2019-03-22T10:05:34.438Z,25.47
2019-03-22T10:08:04.840Z,24.97
2019-03-22T10:10:35.078Z,25.50
2019-03-22T10:13:05.576Z,22.50
2019-03-22T10:15:36.487Z,22.67
2019-03-22T10:18:06.931Z,22.93
2019-03-22T10:20:37.197Z,21.63
2019-03-22T10:23:08.203Z,23.63
2019-03-22T10:25:38.473Z,23.20
2019-03-22T10:28:08.766Z,23.30
2019-03-22T10:30:39.334Z,21.13
2019-03-22T10:33:21.809Z,20.67
2019-03-22T10:35:41.701Z,21.40
2019-03-22T10:38:16.532Z,20.97
2019-03-22T10:40:44.037Z,21.13
2019-03-22T10:43:14.630Z,21.10
2019-03-22T10:45:45.223Z,21.97
2019-03-22T10:48:15.578Z,21.67
2019-03-22T10:50:46.071Z,20.60
2019-03-22T10:53:16.365Z,20.30
2019-03-22T10:55:47.299Z,20.73
2019-03-22T10:58:21.384Z,20.67
2019-03-22T11:00:49.756Z,20.73
2019-03-22T11:03:20.077Z,21.33
2019-03-22T11:05:50.363Z,20.27
2019-03-22T11:08:20.579Z,21.80
2019-03-22T11:10:51.196Z,20.60
2019-03-22T11:13:21.480Z,21.67
2019-03-22T11:15:52.044Z,21.67
2019-03-22T11:18:22.495Z,20.50
2019-03-22T11:20:52.733Z,22.17
2019-03-22T11:23:24.046Z,21.20
2019-03-22T11:26:00.272Z,21.90
2019-03-22T11:28:26.192Z,22.50
2019-03-22T11:31:04.536Z,23.07
2019-03-22T11:33:28.611Z,22.57
2019-03-22T11:35:58.851Z,23.70
2019-03-22T11:38:29.203Z,23.67
2019-03-22T11:40:59.467Z,23.23
2019-03-22T11:43:30.019Z,22.73
2019-03-22T11:46:00.246Z,22.73
2019-03-22T11:48:30.772Z,24.30
2019-03-22T11:51:01.064Z,23.43
2019-03-22T11:53:31.269Z,22.00
2019-03-22T11:56:01.539Z,22.23
2019-03-22T11:58:31.876Z,23.10
2019-03-22T12:01:03.154Z,23.07
2019-03-22T12:03:33.372Z,23.10
2019-03-22T12:06:03.663Z,23.47
2019-03-22T12:08:33.987Z,24.00
2019-03-22T12:11:04.523Z,24.33
2019-03-22T12:13:34.976Z,24.90
2019-03-22T12:16:05.579Z,23.97
2019-03-22T12:18:35.868Z,24.07
2019-03-22T12:21:06.181Z,24.40
2019-03-22T12:23:36.800Z,24.33
2019-03-22T12:26:08.169Z,24.80
2019-03-22T12:28:38.376Z,26.13
2019-03-22T12:31:08.574Z,25.57
2019-03-22T12:33:39.848Z,25.33
2019-03-22T12:36:10.419Z,25.20
2019-03-22T12:38:40.644Z,24.67
2019-03-22T12:41:11.413Z,25.90
2019-03-22T12:43:41.663Z,27.77
2019-03-22T12:46:11.934Z,28.63
2019-03-22T12:48:42.144Z,29.10
2019-03-22T12:51:12.495Z,26.87
2019-03-22T12:53:43.065Z,26.50
2019-03-22T12:56:13.349Z,28.43
2019-03-22T12:58:43.816Z,28.40
2019-03-22T13:01:14.403Z,27.80
2019-03-22T13:03:44.956Z,27.97
2019-03-22T13:06:15.607Z,29.13
2019-03-22T13:08:45.832Z,30.47
2019-03-22T13:11:16.027Z,29.57
2019-03-22T13:13:46.240Z,28.20
2019-03-22T13:16:16.439Z,29.43
2019-03-22T13:18:50.371Z,29.93
2019-03-22T13:21:18.563Z,29.13
2019-03-22T13:23:49.140Z,29.40
2019-03-22T13:26:19.633Z,30.50
2019-03-22T13:28:49.848Z,29.67
2019-03-22T13:31:20.289Z,29.33
2019-03-22T13:33:50.897Z,29.33
2019-03-22T13:36:21.347Z,30.37
2019-03-22T13:38:51.519Z,30.77
2019-03-22T13:41:21.695Z,31.47
2019-03-22T13:43:51.869Z,30.27
2019-03-22T13:46:22.212Z,30.67
2019-03-22T13:48:52.396Z,31.17
2019-03-22T13:51:22.571Z,31.07
2019-03-22T13:53:52.807Z,31.47
2019-03-22T13:56:23.250Z,31.03
2019-03-22T13:58:53.412Z,33.07
2019-03-22T14:01:23.969Z,31.50
2019-03-22T14:03:54.152Z,32.27
2019-03-22T14:06:24.412Z,31.50
2019-03-22T14:08:54.648Z,33.63
2019-03-22T14:11:24.867Z,33.07
2019-03-22T14:13:55.027Z,33.73
2019-03-22T14:16:25.533Z,34.40
2019-03-22T14:18:55.715Z,34.60
2019-03-22T14:21:25.903Z,32.33
2019-03-22T14:23:56.077Z,34.30
2019-03-22T14:26:26.310Z,34.50
2019-03-22T14:28:56.475Z,34.33
2019-03-22T14:31:26.771Z,34.33
2019-03-22T14:33:56.944Z,35.33
2019-03-22T14:36:27.128Z,34.83
2019-03-22T14:38:57.300Z,33.87
2019-03-22T14:41:27.491Z,35.90
2019-03-22T14:43:57.648Z,34.60
2019-03-22T14:46:27.833Z,33.97
2019-03-22T14:48:58.088Z,34.10
2019-03-22T14:51:28.280Z,34.47
2019-03-22T14:53:58.540Z,36.27
2019-03-22T14:56:28.728Z,35.47
2019-03-22T14:58:58.897Z,35.23
2019-03-22T15:01:29.336Z,35.00
2019-03-22T15:03:59.495Z,36.20
2019-03-22T15:06:29.991Z,36.60
2019-03-22T15:09:00.160Z,36.97
2019-03-22T15:11:31.956Z,37.77
2019-03-22T15:14:16.934Z,38.43
2019-03-22T15:17:01.818Z,38.07
2019-03-22T15:19:51.772Z,37.43
2019-03-22T15:22:38.648Z,38.53
2019-03-22T15:25:34.283Z,39.13
2019-03-22T15:28:23.571Z,39.80
2019-03-22T15:31:12.843Z,40.77
2019-03-22T15:36:38.144Z,40.83
2019-03-22T15:39:31.132Z,40.40
2019-03-22T15:42:01.559Z,41.93
2019-03-22T15:44:31.738Z,42.83
2019-03-22T15:47:01.956Z,42.90
2019-03-22T15:49:32.511Z,42.87
2019-03-22T15:52:02.928Z,41.50
2019-03-22T15:54:33.197Z,41.93
2019-03-22T15:57:03.397Z,41.33
2019-03-22T15:59:33.567Z,40.53
2019-03-22T16:02:03.812Z,41.60
2019-03-22T16:04:33.983Z,41.80
2019-03-22T16:07:04.219Z,40.03
2019-03-22T16:09:34.643Z,39.07
2019-03-22T16:12:05.612Z,40.47
2019-03-22T16:14:35.791Z,38.67
2019-03-22T16:17:05.979Z,40.93
2019-03-22T16:19:36.949Z,40.03
2019-03-22T16:22:07.134Z,40.03
2019-03-22T16:24:37.320Z,39.87
2019-03-22T16:27:08.775Z,39.20
2019-03-22T16:29:39.012Z,40.53
2019-03-22T16:32:09.264Z,39.63
2019-03-22T16:34:39.452Z,39.47
2019-03-22T16:37:09.622Z,39.43
2019-03-22T16:39:39.802Z,39.33
2019-03-22T16:42:09.963Z,38.73
2019-03-22T16:44:40.167Z,37.73
2019-03-22T16:47:10.379Z,40.77
2019-03-22T16:49:41.299Z,38.53
2019-03-22T16:52:11.611Z,38.87
2019-03-22T16:54:41.872Z,39.27
2019-03-22T16:57:12.103Z,38.17
2019-03-22T16:59:42.364Z,38.17
2019-03-22T17:02:13.235Z,39.30
2019-03-22T17:04:43.568Z,38.63
2019-03-22T17:07:13.796Z,39.10
2019-03-22T17:09:44.338Z,38.27
2019-03-22T17:12:14.501Z,44.50
2019-03-22T17:14:45.284Z,38.77
2019-03-22T17:17:15.538Z,39.20
2019-03-22T17:19:45.728Z,38.17
2019-03-22T17:22:15.983Z,39.43
2019-03-22T17:24:46.311Z,40.67
2019-03-22T17:27:16.575Z,39.90
2019-03-22T17:29:47.035Z,40.00
2019-03-22T17:32:17.360Z,39.13
2019-03-22T17:34:47.691Z,40.63
2019-03-22T17:37:18.119Z,41.33
2019-03-22T17:39:48.557Z,41.43
2019-03-22T17:42:18.856Z,41.40
2019-03-22T17:44:50.007Z,42.30
2019-03-22T17:47:20.220Z,41.80
2019-03-22T17:49:50.456Z,41.23
2019-03-22T17:52:20.679Z,43.20
2019-03-22T17:54:50.972Z,41.53
2019-03-22T17:57:21.229Z,42.63
2019-03-22T17:59:51.429Z,41.97
2019-03-22T18:02:21.604Z,40.73
2019-03-22T18:04:51.787Z,40.60
2019-03-22T18:07:22.195Z,40.70
2019-03-22T18:09:52.372Z,42.53
2019-03-22T18:12:22.646Z,42.50
2019-03-22T18:14:52.904Z,43.37
2019-03-22T18:17:23.161Z,45.53
2019-03-22T18:19:53.347Z,42.07
2019-03-22T18:22:23.523Z,43.60
2019-03-22T18:24:53.709Z,43.37
2019-03-22T18:27:23.913Z,42.70
2019-03-22T18:29:54.261Z,44.80
2019-03-22T18:32:24.482Z,43.80
2019-03-22T18:34:54.944Z,46.17
2019-03-22T18:37:25.115Z,44.80
2019-03-22T18:39:56.080Z,44.87
2019-03-22T18:42:26.846Z,45.77
2019-03-22T18:44:58.995Z,46.30
2019-03-22T18:47:29.689Z,45.90
2019-03-22T18:49:59.912Z,45.07
2019-03-22T18:52:30.245Z,44.77
2019-03-22T18:55:00.737Z,47.10
2019-03-22T18:57:31.171Z,47.77
2019-03-22T19:00:01.344Z,46.53
2019-03-22T19:02:32.307Z,50.00
2019-03-22T19:05:02.469Z,50.20
2019-03-22T19:07:33.953Z,50.30
2019-03-22T19:10:05.055Z,47.23
2019-03-22T19:12:35.240Z,46.33
2019-03-22T19:15:07.375Z,46.43
2019-03-22T19:17:37.783Z,45.87
2019-03-22T19:20:08.867Z,46.53
2019-03-22T19:22:39.743Z,46.03
2019-03-22T19:25:10.192Z,46.50
2019-03-22T19:27:40.532Z,46.23
2019-03-22T19:30:11.372Z,50.17
2019-03-22T19:32:41.568Z,47.67
2019-03-22T19:35:12.008Z,45.33
2019-03-22T19:37:42.274Z,45.93
2019-03-22T19:40:13.144Z,52.93
2019-03-22T19:42:43.524Z,45.03
2019-03-22T19:45:16.778Z,45.83
2019-03-22T19:47:48.064Z,44.53
2019-03-22T19:50:19.099Z,45.33
2019-03-22T19:52:49.336Z,45.23
2019-03-22T19:55:19.920Z,45.13
2019-03-22T19:57:50.103Z,46.50
2019-03-22T20:00:20.681Z,51.73
2019-03-22T20:02:50.940Z,46.73
2019-03-22T20:05:31.192Z,47.20
2019-03-22T20:08:01.776Z,44.60
2019-03-22T20:10:32.293Z,46.90
2019-03-22T20:13:02.472Z,46.93
2019-03-22T20:15:33.070Z,45.63
2019-03-22T20:18:03.578Z,46.10
2019-03-22T20:20:36.102Z,46.57
2019-03-22T20:23:05.919Z,46.23
2019-03-22T20:25:36.148Z,47.37
2019-03-22T20:28:06.413Z,46.63
2019-03-22T20:30:36.698Z,46.43
2019-03-22T20:33:08.586Z,46.57
2019-03-22T20:35:38.876Z,46.37
2019-03-22T20:38:09.205Z,48.07
2019-03-22T20:40:39.781Z,48.27
2019-03-22T20:43:10.043Z,47.13
2019-03-22T20:45:40.226Z,47.77
2019-03-22T20:48:10.715Z,47.37
2019-03-22T20:50:40.974Z,47.00
2019-03-22T20:53:11.167Z,47.03
2019-03-22T20:55:41.596Z,46.70
2019-03-22T20:58:12.011Z,54.53
2019-03-22T21:00:42.599Z,48.50
2019-03-22T21:03:12.799Z,49.43
2019-03-22T21:05:43.313Z,47.67
2019-03-22T21:08:13.800Z,46.47
2019-03-22T21:10:43.993Z,47.43
2019-03-22T21:13:14.188Z,47.23
2019-03-22T21:15:44.516Z,51.75
2019-03-22T21:18:14.804Z,47.27
2019-03-22T21:20:45.072Z,48.03
2019-03-22T21:23:15.319Z,47.40
2019-03-22T21:25:45.772Z,46.03
2019-03-22T21:28:15.964Z,47.27
2019-03-22T21:30:46.160Z,47.90
2019-03-22T21:33:17.304Z,46.70
2019-03-22T21:35:47.490Z,48.37
2019-03-22T21:38:17.655Z,47.70
2019-03-22T21:40:47.980Z,46.30
2019-03-22T21:43:18.400Z,47.17
2019-03-22T21:45:48.590Z,46.67
2019-03-22T21:48:18.760Z,45.67
2019-03-22T21:50:48.944Z,46.53
2019-03-22T21:53:19.116Z,46.80
2019-03-22T21:55:49.299Z,44.73
2019-03-22T21:58:19.644Z,46.17
2019-03-22T22:00:49.831Z,47.13
2019-03-22T22:03:20.078Z,46.30
2019-03-22T22:05:50.263Z,48.13
2019-03-22T22:08:20.440Z,46.63
2019-03-22T22:10:59.443Z,46.97
2019-03-22T22:13:22.575Z,46.53
2019-03-22T22:15:52.764Z,46.77
2019-03-22T22:18:22.936Z,48.33
2019-03-22T22:20:53.388Z,47.03
2019-03-22T22:23:23.646Z,48.13
2019-03-22T22:25:53.939Z,47.20
2019-03-22T22:28:24.123Z,46.80
2019-03-22T22:30:54.307Z,47.30
2019-03-22T22:33:24.478Z,47.10
2019-03-22T22:35:59.009Z,46.00
2019-03-22T22:38:26.983Z,48.00
2019-03-22T22:40:57.188Z,47.57
2019-03-22T22:43:27.376Z,47.17
2019-03-22T22:45:57.898Z,47.40
2019-03-22T22:48:28.070Z,46.57
2019-03-22T22:50:58.608Z,47.37
2019-03-22T22:53:29.054Z,47.70
2019-03-22T22:55:59.233Z,47.50
2019-03-22T22:58:29.425Z,48.30
2019-03-22T23:00:59.926Z,49.07
2019-03-22T23:03:31.815Z,48.60
2019-03-22T23:06:09.447Z,47.87
2019-03-22T23:08:34.203Z,49.27
2019-03-22T23:11:04.390Z,48.50
2019-03-22T23:13:34.850Z,46.57
2019-03-22T23:16:05.171Z,50.23
2019-03-22T23:18:35.364Z,47.70
2019-03-22T23:21:05.555Z,48.17
2019-03-22T23:23:35.735Z,46.40
2019-03-22T23:26:05.918Z,47.50
2019-03-22T23:28:36.111Z,48.80
2019-03-22T23:31:06.613Z,47.23
2019-03-22T23:33:36.813Z,48.27
2019-03-22T23:36:07.058Z,48.97
2019-03-22T23:38:37.235Z,48.50
2019-03-22T23:41:08.386Z,46.33
2019-03-22T23:43:38.564Z,49.50
2019-03-22T23:46:08.736Z,56.67
2019-03-22T23:48:38.921Z,52.53
2019-03-22T23:51:09.160Z,56.97
2019-03-22T23:53:39.632Z,48.30
2019-03-22T23:56:09.876Z,48.67
2019-03-22T23:58:40.120Z,47.93
